createdAt,value
2022-12-18T05:13:51.197Z,5.30
2022-12-18T05:28:55.689Z,5.50
2022-12-18T05:44:00.525Z,5.40
2022-12-18T05:59:05.042Z,5.50
2022-12-18T06:14:10.762Z,5.30
2022-12-18T06:29:15.304Z,5.20
2022-12-18T06:44:20.073Z,5.10
2022-12-18T06:59:25.069Z,5.20
2022-12-18T07:14:30.634Z,5.30
2022-12-18T07:29:35.016Z,5.30
2022-12-18T07:44:39.928Z,5.30
2022-12-18T07:59:44.382Z,5.10
2022-12-18T08:14:48.914Z,5.10
2022-12-18T08:29:53.435Z,5.00
2022-12-18T08:44:57.903Z,4.60
2022-12-18T09:00:02.388Z,5.10
2022-12-18T09:15:08.223Z,5.50
2022-12-18T09:30:13.244Z,5.50
2022-12-18T09:45:19.261Z,5.50
2022-12-18T10:00:25.997Z,5.70
2022-12-18T10:15:36.548Z,5.70
2022-12-18T10:30:42.395Z,5.90
2022-12-18T10:46:01.801Z,6.10
2022-12-18T11:01:13.141Z,6.30
2022-12-18T11:16:22.298Z,6.50
2022-12-18T11:31:29.486Z,6.50
2022-12-18T11:46:40.318Z,6.60
2022-12-18T12:01:53.630Z,6.50
2022-12-18T12:17:03.921Z,6.90
2022-12-18T12:32:23.594Z,7.10
2022-12-18T12:47:32.030Z,7.40
2022-12-18T13:02:45.884Z,7.50
2022-12-18T13:17:50.593Z,7.60
2022-12-18T13:49:27.151Z,7.50
2022-12-18T14:04:33.225Z,7.70
2022-12-18T14:19:38.683Z,7.90
2022-12-18T14:34:43.728Z,7.90
2022-12-18T14:49:48.364Z,8.10
2022-12-18T15:05:04.377Z,8.00
2022-12-18T15:20:13.215Z,8.20
2022-12-18T15:35:20.043Z,8.20
2022-12-18T15:50:25.088Z,8.50
2022-12-18T16:05:31.720Z,8.30
2022-12-18T16:20:37.141Z,8.30
2022-12-18T16:35:41.945Z,8.10
2022-12-18T16:50:47.221Z,8.40
2022-12-18T17:05:53.295Z,8.50
2022-12-18T17:21:01.935Z,8.50
2022-12-18T17:36:07.519Z,8.70
2022-12-18T17:51:12.589Z,8.80
2022-12-18T18:06:17.420Z,8.90
2022-12-18T18:21:21.950Z,8.80
2022-12-18T18:36:26.797Z,8.90
2022-12-18T18:51:34.793Z,9.00
2022-12-18T19:06:40.157Z,9.10
2022-12-18T19:21:45.236Z,9.10
2022-12-18T19:36:49.657Z,9.20
2022-12-18T19:51:54.423Z,9.30
2022-12-18T20:06:59.010Z,9.20
2022-12-18T20:22:03.842Z,9.30
2022-12-18T20:37:08.546Z,9.40
2022-12-18T20:52:15.614Z,9.40
2022-12-18T21:07:20.259Z,9.50
2022-12-18T21:22:25.210Z,9.50
2022-12-18T21:37:29.772Z,9.70
2022-12-18T21:52:34.374Z,9.70
2022-12-18T22:07:38.871Z,9.60
2022-12-18T22:22:43.381Z,9.80
2022-12-18T22:37:47.824Z,9.90
2022-12-18T22:52:52.339Z,10.00
2022-12-18T23:07:56.855Z,9.90
2022-12-18T23:23:01.356Z,9.90
2022-12-18T23:38:05.799Z,9.90
2022-12-18T23:53:11.097Z,9.80
